Del Norte — WDC2280 — position and weather

sailwx.info

Track history (hours):
 
Tides and Currents Weather Stations Pressure Air Temp Water Temp Dewpoint Dewpoint Depression Visibility Wind Speed Wind Dir Waves Ship Positions

Del Norte

Owner: Golden Gate Bridge,Hwy & Transportation District, Larkspur, CA. More information available from US FCC via Universal Licensing System and Coast Guard Vessel Documentation Center.

Last reported at 2015-Sep-04 02:34 UTC. Time now 2015-Sep-04 05:54 UTC.
Position N 37°52' W 122°25'.

Length 48 m.

Type: High speed craft. MMSI: 366990520.

Date/timePositionNaut miles runAvg speedWind from/ knotsBaromVisibWave heightAir tempDewpointWater temp
2015-Sep-04 02:34N 37°52' W 122°25'6 6.4
2015-Sep-04 01:33N 37°57' W 122°30'6 6.3
2015-Sep-04 00:34N 37°52' W 122°25'4 4.4
2015-Sep-03 23:34N 37°48' W 122°23'1010.4
2015-Sep-03 22:33N 37°57' W 122°30'2 2.1
2015-Sep-03 21:34N 37°55' W 122°28'2 2.2
2015-Sep-03 20:33N 37°57' W 122°31'9 8.8
2015-Sep-03 19:33N 37°50' W 122°24'9 8.8
2015-Sep-03 18:34N 37°57' W 122°30'8 8.3
2015-Sep-03 17:33N 37°50' W 122°24'7 7.3
2015-Sep-03 16:34N 37°56' W 122°29'2 1.8
2015-Sep-03 15:33N 37°55' W 122°28'8 7.7
2015-Sep-03 14:33N 37°48' W 122°24'4 3.7
2015-Sep-03 13:34N 37°51' W 122°24'7 7.3
2015-Sep-03 12:33N 37°57' W 122°31'6 0.6
2015-Sep-03 02:34N 37°52' W 122°25'6 6.3
2015-Sep-03 01:33N 37°57' W 122°30'7 6.9
2015-Sep-03 00:34N 37°51' W 122°25'4 3.7
2015-Sep-02 23:33N 37°48' W 122°23'1010.4
2015-Sep-02 22:33N 37°57' W 122°30'2 2.3
2015-Sep-02 21:34N 37°55' W 122°28'2 2.3
2015-Sep-02 20:34N 37°57' W 122°30'8 8.2
2015-Sep-02 19:34N 37°50' W 122°24'8 8.2
2015-Sep-02 18:33N 37°57' W 122°30'5 5.3
2015-Sep-02 17:34N 37°53' W 122°26'5 4.5
2015-Sep-02 16:33N 37°56' W 122°30'2 1.8
2015-Sep-02 15:34N 37°55' W 122°28'8 8.1
2015-Sep-02 14:34N 37°48' W 122°24'4 3.6
2015-Sep-02 13:34N 37°51' W 122°24'7 7.3
2015-Sep-02 12:33N 37°57' W 122°31'6 0.6
2015-Sep-02 02:34N 37°52' W 122°25'6 6.1
2015-Sep-02 01:33N 37°57' W 122°30'7 7.5
2015-Sep-02 00:34N 37°51' W 122°25'3 3.1
2015-Sep-01 23:34N 37°48' W 122°23'1010.4
2015-Sep-01 22:33N 37°57' W 122°30'3 2.9
2015-Sep-01 21:34N 37°55' W 122°28'3 2.8
2015-Sep-01 20:33N 37°57' W 122°30'8 8.5
2015-Sep-01 19:34N 37°50' W 122°24'8 8.4
2015-Sep-01 18:33N 37°57' W 122°30'7 7.4
2015-Sep-01 17:34N 37°51' W 122°24'6 6.5
2015-Sep-01 16:34N 37°56' W 122°29'2 2.0
2015-Sep-01 15:34N 37°55' W 122°27'8 7.7
2015-Sep-01 14:33N 37°48' W 122°24'4 3.5
2015-Sep-01 13:34N 37°51' W 122°24'7 7.4
2015-Sep-01 12:33N 37°57' W 122°31'8 0.7
2015-Sep-01 00:34N 37°51' W 122°24'8 8.1
2015-Aug-31 23:33N 37°57' W 122°30'3 3.3
2015-Aug-31 22:33N 37°55' W 122°27'3 3.4
2015-Aug-31 21:33N 37°57' W 122°31'0 0.0
2015-Aug-31 20:33N 37°57' W 122°31'0 0.0
2015-Aug-31 19:33N 37°57' W 122°31'0 0.0
2015-Aug-31 18:33N 37°57' W 122°31'1211.6
2015-Aug-31 17:33N 37°47' W 122°23'0 0.1
2015-Aug-31 16:34N 37°47' W 122°23'1111.0
2015-Aug-31 15:33N 37°56' W 122°30'0 0.1
2015-Aug-31 14:33N 37°56' W 122°30'1 0.1
2015-Aug-31 01:33N 37°57' W 122°30'13 0.3
2015-Aug-29 04:16N 38°04' W 122°16'1319.0
2015-Aug-29 03:33N 37°57' W 122°30'1010.4
2015-Aug-29 02:33N 37°48' W 122°24'8 7.9
2015-Aug-29 01:33N 37°55' W 122°28'8 7.8
2015-Aug-29 00:34N 37°48' W 122°23'1010.3
2015-Aug-28 23:33N 37°57' W 122°30'10 9.8
2015-Aug-28 22:34N 37°49' W 122°23'10 9.9
2015-Aug-28 21:33N 37°57' W 122°31'0 0.0
2015-Aug-28 20:33N 37°57' W 122°31'0 0.0
2015-Aug-28 19:33N 37°57' W 122°31'0 0.0
2015-Aug-28 18:33N 37°57' W 122°31'0 0.0
2015-Aug-28 17:33N 37°57' W 122°31'8 7.7
2015-Aug-28 16:34N 37°51' W 122°24'6 5.8
2015-Aug-28 15:33N 37°56' W 122°28'2 1.9
2015-Aug-28 14:34N 37°57' W 122°30'0 0.2
2015-Aug-28 13:33N 37°57' W 122°31'0 0.0
2015-Aug-28 01:09N 37°57' W 122°30'1017.7
2015-Aug-28 00:34N 37°48' W 122°24'1010.3
2015-Aug-27 23:33N 37°57' W 122°30'1010.2
2015-Aug-27 22:34N 37°48' W 122°23'1010.4
2015-Aug-27 21:33N 37°57' W 122°31'8 8.5
2015-Aug-27 20:34N 37°50' W 122°24'8 8.4
2015-Aug-27 19:34N 37°57' W 122°30'5 5.5
2015-Aug-27 18:34N 37°53' W 122°26'5 5.5
2015-Aug-27 17:33N 37°57' W 122°30'8 8.1
2015-Aug-27 16:34N 37°51' W 122°24'7 7.2
2015-Aug-27 15:34N 37°56' W 122°29'0 0.4
2015-Aug-27 14:33N 37°56' W 122°30'1 0.7
2015-Aug-27 13:33N 37°57' W 122°31'0 0.0
2015-Aug-27 04:28N 37°57' W 122°31'1011.0
2015-Aug-27 03:34N 37°49' W 122°23'2 2.1
2015-Aug-27 02:34N 37°47' W 122°23'7 7.2
2015-Aug-27 01:34N 37°53' W 122°26'4 4.3
2015-Aug-27 00:34N 37°50' W 122°24'9 8.7
2015-Aug-26 23:33N 37°57' W 122°30'9 8.8
2015-Aug-26 22:34N 37°49' W 122°24'9 9.0
2015-Aug-26 21:33N 37°57' W 122°31'0 0.1
2015-Aug-26 20:33N 37°57' W 122°30'9 8.9
2015-Aug-26 19:34N 37°50' W 122°23'9 8.9
2015-Aug-26 18:34N 37°57' W 122°30'7 7.0
2015-Aug-26 17:33N 37°51' W 122°25'2 1.6
2015-Aug-26 16:34N 37°50' W 122°24'7 7.2
2015-Aug-26 15:34N 37°56' W 122°29'1 1.0
2015-Aug-26 14:33N 37°56' W 122°30'1 0.1
2015-Aug-26 04:12N 37°57' W 122°31'1016.0
2015-Aug-26 03:34N 37°48' W 122°23'1 1.3
2015-Aug-26 02:34N 37°47' W 122°23'8 7.5
2015-Aug-26 01:34N 37°54' W 122°26'5 5.1
2015-Aug-26 00:34N 37°49' W 122°23'9 9.1
2015-Aug-25 23:33N 37°57' W 122°30'2 1.6
2015-Aug-25 22:33N 37°56' W 122°29'2 1.8
2015-Aug-25 21:33N 37°57' W 122°31'0 0.0
2015-Aug-25 20:33N 37°57' W 122°31'9 9.2
2015-Aug-25 19:34N 37°49' W 122°23'9 9.1
2015-Aug-25 18:33N 37°57' W 122°30'7 6.7
2015-Aug-25 17:34N 37°52' W 122°25'4 3.5
2015-Aug-25 16:34N 37°48' W 122°23'9 9.0
2015-Aug-25 15:34N 37°56' W 122°29'0 0.4
2015-Aug-25 14:33N 37°56' W 122°30'  
Track history (hours):
 
Tides and Currents Weather Stations Pressure Air Temp Water Temp Dewpoint Dewpoint Depression Visibility Wind Speed Wind Dir Waves Ship Positions

Del Norte

Owner: Golden Gate Bridge,Hwy & Transportation District, Larkspur, CA. More information available from US FCC via Universal Licensing System and Coast Guard Vessel Documentation Center.

Last reported at 2015-Sep-04 02:34 UTC. Time now 2015-Sep-04 05:54 UTC.
Position N 37°52' W 122°25'.

Length 48 m.

Type: High speed craft. MMSI: 366990520.

Date/timePositionNaut miles runAvg speedWind from/ knotsBaromVisibWave heightAir tempDewpointWater temp
2015-Sep-04 02:34N 37°52' W 122°25'6 6.4
2015-Sep-04 01:33N 37°57' W 122°30'6 6.3
2015-Sep-04 00:34N 37°52' W 122°25'4 4.4
2015-Sep-03 23:34N 37°48' W 122°23'1010.4
2015-Sep-03 22:33N 37°57' W 122°30'2 2.1
2015-Sep-03 21:34N 37°55' W 122°28'2 2.2
2015-Sep-03 20:33N 37°57' W 122°31'9 8.8
2015-Sep-03 19:33N 37°50' W 122°24'9 8.8
2015-Sep-03 18:34N 37°57' W 122°30'8 8.3
2015-Sep-03 17:33N 37°50' W 122°24'7 7.3
2015-Sep-03 16:34N 37°56' W 122°29'2 1.8
2015-Sep-03 15:33N 37°55' W 122°28'8 7.7
2015-Sep-03 14:33N 37°48' W 122°24'4 3.7
2015-Sep-03 13:34N 37°51' W 122°24'7 7.3
2015-Sep-03 12:33N 37°57' W 122°31'6 0.6
2015-Sep-03 02:34N 37°52' W 122°25'6 6.3
2015-Sep-03 01:33N 37°57' W 122°30'7 6.9
2015-Sep-03 00:34N 37°51' W 122°25'4 3.7
2015-Sep-02 23:33N 37°48' W 122°23'1010.4
2015-Sep-02 22:33N 37°57' W 122°30'2 2.3
2015-Sep-02 21:34N 37°55' W 122°28'2 2.3
2015-Sep-02 20:34N 37°57' W 122°30'8 8.2
2015-Sep-02 19:34N 37°50' W 122°24'8 8.2
2015-Sep-02 18:33N 37°57' W 122°30'5 5.3
2015-Sep-02 17:34N 37°53' W 122°26'5 4.5
2015-Sep-02 16:33N 37°56' W 122°30'2 1.8
2015-Sep-02 15:34N 37°55' W 122°28'8 8.1
2015-Sep-02 14:34N 37°48' W 122°24'4 3.6
2015-Sep-02 13:34N 37°51' W 122°24'7 7.3
2015-Sep-02 12:33N 37°57' W 122°31'6 0.6
2015-Sep-02 02:34N 37°52' W 122°25'6 6.1
2015-Sep-02 01:33N 37°57' W 122°30'7 7.5
2015-Sep-02 00:34N 37°51' W 122°25'3 3.1
2015-Sep-01 23:34N 37°48' W 122°23'1010.4
2015-Sep-01 22:33N 37°57' W 122°30'3 2.9
2015-Sep-01 21:34N 37°55' W 122°28'3 2.8
2015-Sep-01 20:33N 37°57' W 122°30'8 8.5
2015-Sep-01 19:34N 37°50' W 122°24'8 8.4
2015-Sep-01 18:33N 37°57' W 122°30'7 7.4
2015-Sep-01 17:34N 37°51' W 122°24'6 6.5
2015-Sep-01 16:34N 37°56' W 122°29'2 2.0
2015-Sep-01 15:34N 37°55' W 122°27'8 7.7
2015-Sep-01 14:33N 37°48' W 122°24'4 3.5
2015-Sep-01 13:34N 37°51' W 122°24'7 7.4
2015-Sep-01 12:33N 37°57' W 122°31'8 0.7
2015-Sep-01 00:34N 37°51' W 122°24'8 8.1
2015-Aug-31 23:33N 37°57' W 122°30'3 3.3
2015-Aug-31 22:33N 37°55' W 122°27'3 3.4
2015-Aug-31 21:33N 37°57' W 122°31'0 0.0
2015-Aug-31 20:33N 37°57' W 122°31'0 0.0
2015-Aug-31 19:33N 37°57' W 122°31'0 0.0
2015-Aug-31 18:33N 37°57' W 122°31'1211.6
2015-Aug-31 17:33N 37°47' W 122°23'0 0.1
2015-Aug-31 16:34N 37°47' W 122°23'1111.0
2015-Aug-31 15:33N 37°56' W 122°30'0 0.1
2015-Aug-31 14:33N 37°56' W 122°30'1 0.1
2015-Aug-31 01:33N 37°57' W 122°30'13 0.3
2015-Aug-29 04:16N 38°04' W 122°16'1319.0
2015-Aug-29 03:33N 37°57' W 122°30'1010.4
2015-Aug-29 02:33N 37°48' W 122°24'8 7.9
2015-Aug-29 01:33N 37°55' W 122°28'8 7.8
2015-Aug-29 00:34N 37°48' W 122°23'1010.3
2015-Aug-28 23:33N 37°57' W 122°30'10 9.8
2015-Aug-28 22:34N 37°49' W 122°23'10 9.9
2015-Aug-28 21:33N 37°57' W 122°31'0 0.0
2015-Aug-28 20:33N 37°57' W 122°31'0 0.0
2015-Aug-28 19:33N 37°57' W 122°31'0 0.0
2015-Aug-28 18:33N 37°57' W 122°31'0 0.0
2015-Aug-28 17:33N 37°57' W 122°31'8 7.7
2015-Aug-28 16:34N 37°51' W 122°24'6 5.8
2015-Aug-28 15:33N 37°56' W 122°28'2 1.9
2015-Aug-28 14:34N 37°57' W 122°30'0 0.2
2015-Aug-28 13:33N 37°57' W 122°31'0 0.0
2015-Aug-28 01:09N 37°57' W 122°30'1017.7
2015-Aug-28 00:34N 37°48' W 122°24'1010.3
2015-Aug-27 23:33N 37°57' W 122°30'1010.2
2015-Aug-27 22:34N 37°48' W 122°23'1010.4
2015-Aug-27 21:33N 37°57' W 122°31'8 8.5
2015-Aug-27 20:34N 37°50' W 122°24'8 8.4
2015-Aug-27 19:34N 37°57' W 122°30'5 5.5
2015-Aug-27 18:34N 37°53' W 122°26'5 5.5
2015-Aug-27 17:33N 37°57' W 122°30'8 8.1
2015-Aug-27 16:34N 37°51' W 122°24'7 7.2
2015-Aug-27 15:34N 37°56' W 122°29'0 0.4
2015-Aug-27 14:33N 37°56' W 122°30'1 0.7
2015-Aug-27 13:33N 37°57' W 122°31'0 0.0
2015-Aug-27 04:28N 37°57' W 122°31'1011.0
2015-Aug-27 03:34N 37°49' W 122°23'2 2.1
2015-Aug-27 02:34N 37°47' W 122°23'7 7.2
2015-Aug-27 01:34N 37°53' W 122°26'4 4.3
2015-Aug-27 00:34N 37°50' W 122°24'9 8.7
2015-Aug-26 23:33N 37°57' W 122°30'9 8.8
2015-Aug-26 22:34N 37°49' W 122°24'9 9.0
2015-Aug-26 21:33N 37°57' W 122°31'0 0.1
2015-Aug-26 20:33N 37°57' W 122°30'9 8.9
2015-Aug-26 19:34N 37°50' W 122°23'9 8.9
2015-Aug-26 18:34N 37°57' W 122°30'7 7.0
2015-Aug-26 17:33N 37°51' W 122°25'2 1.6
2015-Aug-26 16:34N 37°50' W 122°24'7 7.2
2015-Aug-26 15:34N 37°56' W 122°29'1 1.0
2015-Aug-26 14:33N 37°56' W 122°30'1 0.1
2015-Aug-26 04:12N 37°57' W 122°31'1016.0
2015-Aug-26 03:34N 37°48' W 122°23'1 1.3
2015-Aug-26 02:34N 37°47' W 122°23'8 7.5
2015-Aug-26 01:34N 37°54' W 122°26'5 5.1
2015-Aug-26 00:34N 37°49' W 122°23'9 9.1
2015-Aug-25 23:33N 37°57' W 122°30'2 1.6
2015-Aug-25 22:33N 37°56' W 122°29'2 1.8
2015-Aug-25 21:33N 37°57' W 122°31'0 0.0
2015-Aug-25 20:33N 37°57' W 122°31'9 9.2
2015-Aug-25 19:34N 37°49' W 122°23'9 9.1
2015-Aug-25 18:33N 37°57' W 122°30'7 6.7
2015-Aug-25 17:34N 37°52' W 122°25'4 3.5
2015-Aug-25 16:34N 37°48' W 122°23'9 9.0
2015-Aug-25 15:34N 37°56' W 122°29'0 0.4
2015-Aug-25 14:33N 37°56' W 122°30'  

Dump ship's entire track history